Aeroporto :
LOGIN :

Iscrizione | Disclaimer

   EN    FR    IT 

 










Sommario :    VFR   VFR Marginale   IFR   IFR Intensivo   IFR Molto Intensivo
Visibilità : 
Base nubi : 
>= 8 km
>= 3000ft
5 / 8 km
1000 / 3000 ft
1500m / 5 km
500 / 1000 ft
800 / 1500m
200 / 500 ft
< 800m
< 200 ft
Simboli :   Temporali  Nebbia  Neve Forte  Precipitazioni Forti  Vento > 20 kt
SIGMETs :   Varie  Temporali  Ghiacco  Turbolenza  Onda orograficha  Ceneri Vulcaniche






- Altitudine del aeroporto : 100 ft
- Codice IATA : DCI


LIED - Decimomannu Air Base

ULTIMO METAR :
  • 091755Z 16003KT 9999 FEW030 17/12 Q1020 RMK BKN BKN080 VIS MIN 9999 WIND THR35 14007KT WIND THR17 /////KT BLU

METARs OBSOLETI :
  • 091655Z 14006KT 9999 SCT030 19/10 Q1020 RMK BKN BKN090 VIS MIN 9999 WIND THR35 14007KT WIND THR17 /////KT BLU
  • 091555Z 16006KT 9999 SCT030 20/07 Q1020 RMK BKN BKN090 VIS MIN 9999 WIND THR35 16006KT WIND THR17 /////KT BLU

TAF TAF LIED
Valido dal 09 a 18 ore il 10 a 03 ore UTC


091700Z 0918/1003 13005KT 9999 SCT030
BECMG 0918/0920 VRB03KT 9999 FEW040



MetMap, La meteo Aeronautica in un colpo d'occhio ! - Copyright ORBIFLY Dicembre 2007 - Disclaimer

ORBIFLY MET'MAP TEAM :

Programmazione e sviluppo : Alexandra Zaïnal
Concezione : Baudouin d'Aumeries
Aiuto per la programmazione : Marc-Olivier Méhu
Supporto tecnico e logistico : Manuel Goepfert
Aiuto per la traduzione : Arnaldo La Scala

Contatto : metmap@orbifly.com




FONTI E CREDITI :

   NOAA